Portada
METAR-TAF:

METAR-TAF

Aeroports :

Illizi, Algèria

latitud: 26-30N, longitud: 008-25E, altitud: 558 m

Observació

L'informe es va fer fa 1 hora i 8 minuts, a les 11:00 UTC
Vent 10 kt del Sud-Est
Temperatura 42°C
Pressió 1014 hPa
Visibilitat 10 km o més
sense núvols per sota de 1500 mi sense presència de cumulonimbus.

METAR: DAAP 051100Z 14010KT CAVOK 42/// Q1014

Hora: 13:08 (12:08 UTC)

Pronòstic

L'informe es va fer fa 1 hora i 8 minuts, a les 11:00 UTC
Pronòstic vàlid del 05 a les 12 UTC al 05 a les 21 UTC
Vent 12 kt del Sud-Est
Visibilitat: 8000 m
Probabilitat 30% :
Temporalment
l' 05 a les 12 UTC al 05 a les 15 UTC
Vent 15 kt del Sud-Est amb ràfegues de 25 kt
Visibilitat: 3000 m
torb baixa de sorra

TAF: DAAP 051100Z 0512/0521 14012KT 8000 NSC PROB30 TEMPO 0512/0515 14015G25KT 3000 DRSA

Observacions i pronòstics meteorològics de més de 4000 aeroports (METAR i TAF).

Les estacions disponibles són els punts grocs i vermells al mapa.

Posi el ratolí al punt desitjat per veure el nom de l'estació.

Feu clic per veure les observacions i els pronòstics meteorològics.

Per canviar el mapa: feu clic els botons verds amb una creu de color negre per apropar; al botó verd amb un guió per allunyar la imatge; o en les fletxes verdes per a mapes adjacents.


METAR-TAF: